createdAt,value
2023-03-23T00:00:35.357Z,77.27
2023-03-23T00:01:35.397Z,77.78
2023-03-23T00:02:35.323Z,77.37
2023-03-23T00:03:35.332Z,77.68
2023-03-23T00:04:35.298Z,77.68
2023-03-23T00:05:35.332Z,77.48
2023-03-23T00:06:35.278Z,77.27
2023-03-23T00:07:35.319Z,77.58
2023-03-23T00:08:35.255Z,78.09
2023-03-23T00:09:35.284Z,77.98
2023-03-23T00:10:35.248Z,78.09
2023-03-23T00:11:35.296Z,78.50
2023-03-23T00:12:35.217Z,78.60
2023-03-23T00:13:35.260Z,78.80
2023-03-23T00:14:35.208Z,79.21
2023-03-23T00:15:35.217Z,79.21
2023-03-23T00:16:35.167Z,79.35
2023-03-23T00:17:35.161Z,79.41
2023-03-23T00:18:35.193Z,79.45
2023-03-23T00:19:35.164Z,79.00
2023-03-23T00:20:35.151Z,79.75
2023-03-23T00:21:35.124Z,79.75
2023-03-23T00:22:35.138Z,79.86
2023-03-23T00:23:35.098Z,80.88
2023-03-23T00:24:35.111Z,80.37
2023-03-23T00:25:35.102Z,80.57
2023-03-23T00:26:35.230Z,80.47
2023-03-23T00:27:35.058Z,80.37
2023-03-23T00:28:35.077Z,81.18
2023-03-23T00:29:35.032Z,81.70
2023-03-23T00:30:35.057Z,82.21
2023-03-23T00:31:35.060Z,82.41
2023-03-23T00:32:35.025Z,82.41
2023-03-23T00:33:35.001Z,82.14
2023-03-23T00:34:35.007Z,82.00
2023-03-23T00:35:35.045Z,82.35
2023-03-23T00:36:35.015Z,82.45
2023-03-23T00:37:34.977Z,82.96
2023-03-23T00:38:34.968Z,83.57
2023-03-23T00:39:34.937Z,83.37
2023-03-23T00:40:34.949Z,84.69
2023-03-23T00:41:34.915Z,84.08
2023-03-23T00:42:34.933Z,83.78
2023-03-23T00:43:34.913Z,83.98
2023-03-23T00:44:34.912Z,83.98
2023-03-23T00:45:34.882Z,84.18
2023-03-23T00:46:34.903Z,84.39
2023-03-23T00:47:34.858Z,84.18
2023-03-23T00:48:34.869Z,84.18
2023-03-23T00:49:34.850Z,84.69
2023-03-23T00:50:39.070Z,84.39
2023-03-23T00:51:34.812Z,84.49
2023-03-23T00:52:34.822Z,84.08
2023-03-23T00:53:34.787Z,84.08
2023-03-23T00:54:34.795Z,84.08
2023-03-23T00:55:34.789Z,83.57
2023-03-23T00:56:34.778Z,84.08
2023-03-23T00:57:34.758Z,83.67
2023-03-23T00:58:34.762Z,84.18
2023-03-23T00:59:34.727Z,83.78
2023-03-23T01:00:34.747Z,83.87
2023-03-23T01:01:34.730Z,84.18
2023-03-23T01:02:34.738Z,83.67
2023-03-23T01:03:34.678Z,83.98
2023-03-23T01:04:34.700Z,84.18
2023-03-23T01:05:34.667Z,84.28
2023-03-23T01:06:34.670Z,84.39
2023-03-23T01:07:34.652Z,84.18
2023-03-23T01:08:34.651Z,84.08
2023-03-23T01:09:36.025Z,84.18
2023-03-23T01:10:34.639Z,84.18
2023-03-23T01:11:34.598Z,84.90
2023-03-23T01:12:34.616Z,84.90
2023-03-23T01:13:34.589Z,84.49
2023-03-23T01:14:34.587Z,84.59
2023-03-23T01:15:34.559Z,84.59
2023-03-23T01:16:34.588Z,84.90
2023-03-23T01:17:34.547Z,84.90
2023-03-23T01:18:34.544Z,84.69
2023-03-23T01:19:34.674Z,84.59
2023-03-23T01:20:34.536Z,85.10
2023-03-23T01:21:34.491Z,84.59
2023-03-23T01:22:34.508Z,84.39
2023-03-23T01:23:34.475Z,83.98
2023-03-23T01:24:34.495Z,83.67
2023-03-23T01:25:34.474Z,83.87
2023-03-23T01:26:34.457Z,83.67
2023-03-23T01:27:34.431Z,83.57
2023-03-23T01:28:34.443Z,83.57
2023-03-23T01:29:34.410Z,83.16
2023-03-23T01:30:34.431Z,82.75
2023-03-23T01:31:34.400Z,83.37
2023-03-23T01:32:34.399Z,82.86
2023-03-23T01:33:34.373Z,82.86
2023-03-23T01:34:34.370Z,83.16
2023-03-23T01:35:34.374Z,82.86
2023-03-23T01:36:34.361Z,83.06
2023-03-23T01:37:34.366Z,82.35
2023-03-23T01:38:34.333Z,82.45
2023-03-23T01:39:34.296Z,81.70
2023-03-23T01:40:34.316Z,81.80
2023-03-23T01:41:34.303Z,81.49
2023-03-23T01:42:34.292Z,82.00
2023-03-23T01:43:34.281Z,81.80
2023-03-23T01:44:34.292Z,81.90
2023-03-23T01:45:34.242Z,82.10
2023-03-23T01:46:34.257Z,81.70
2023-03-23T01:47:34.265Z,82.10
2023-03-23T01:48:34.248Z,82.21
2023-03-23T01:49:34.229Z,82.10
2023-03-23T01:50:34.206Z,82.00
2023-03-23T01:51:41.814Z,82.31
2023-03-23T01:52:34.195Z,82.21
2023-03-23T01:53:34.157Z,82.82
2023-03-23T01:54:34.177Z,83.02
2023-03-23T01:55:34.166Z,83.87
2023-03-23T01:56:34.147Z,84.49
2023-03-23T01:57:34.147Z,85.51
2023-03-23T01:58:34.146Z,86.43
2023-03-23T01:59:34.091Z,87.38
2023-03-23T02:00:34.104Z,88.61
2023-03-23T02:01:34.089Z,88.61
2023-03-23T02:02:34.105Z,91.52
2023-03-23T02:03:34.047Z,90.59
2023-03-23T02:04:34.073Z,93.05
2023-03-23T02:05:34.057Z,91.46
2023-03-23T02:06:34.052Z,91.96
2023-03-23T02:07:34.037Z,92.78
2023-03-23T02:08:34.026Z,92.99
2023-03-23T02:09:33.995Z,91.86
2023-03-23T02:10:34.000Z,91.56
2023-03-23T02:11:33.969Z,94.01
2023-03-23T02:12:33.977Z,94.67
2023-03-23T02:13:33.974Z,94.26
2023-03-23T02:14:33.959Z,95.38
2023-03-23T02:15:33.941Z,94.67
2023-03-23T02:16:33.960Z,95.48
2023-03-23T02:17:33.918Z,95.59
2023-03-23T02:18:33.925Z,96.86
2023-03-23T02:19:33.914Z,98.29
2023-03-23T02:20:33.899Z,97.27
2023-03-23T02:21:33.880Z,97.88
2023-03-23T02:22:33.872Z,98.19
2023-03-23T02:23:33.858Z,98.19
2023-03-23T02:24:33.859Z,99.15
2023-03-23T02:25:33.843Z,99.56
2023-03-23T02:26:33.852Z,99.66
2023-03-23T02:27:33.808Z,99.87
2023-03-23T02:28:33.819Z,99.99
2023-03-23T02:29:33.782Z,99.99
2023-03-23T02:30:33.790Z,99.99
2023-03-23T02:31:33.787Z,99.99
2023-03-23T02:32:33.771Z,99.99
2023-03-23T02:33:33.739Z,99.99
2023-03-23T02:34:33.745Z,99.26
2023-03-23T02:35:33.743Z,99.66
2023-03-23T02:36:33.723Z,98.44
2023-03-23T02:37:33.722Z,98.44
2023-03-23T02:38:33.718Z,97.72
2023-03-23T02:39:33.673Z,98.95
2023-03-23T02:40:33.700Z,96.29
2023-03-23T02:41:33.661Z,96.45
2023-03-23T02:42:33.669Z,97.27
2023-03-23T02:43:35.202Z,95.94
2023-03-23T02:44:33.642Z,94.81
2023-03-23T02:45:33.606Z,94.30
2023-03-23T02:46:33.630Z,95.22
2023-03-23T02:47:33.585Z,94.20
2023-03-23T02:48:33.613Z,95.28
2023-03-23T02:49:33.580Z,94.81
2023-03-23T02:50:33.576Z,94.10
2023-03-23T02:51:33.553Z,94.15
2023-03-23T02:52:33.568Z,95.53
2023-03-23T02:53:33.544Z,92.93
2023-03-23T02:54:33.530Z,95.94
2023-03-23T02:55:33.515Z,93.89
2023-03-23T02:56:33.514Z,93.38
2023-03-23T02:57:40.267Z,92.83
2023-03-23T02:58:33.501Z,93.44
2023-03-23T02:59:33.462Z,94.97
2023-03-23T03:00:33.493Z,92.83
2023-03-23T03:01:33.462Z,93.65
2023-03-23T03:02:33.502Z,94.46
2023-03-23T03:03:33.415Z,92.72
2023-03-23T03:04:33.433Z,93.74
2023-03-23T03:05:33.394Z,92.83
2023-03-23T03:06:33.414Z,93.33
2023-03-23T03:07:33.394Z,93.95
2023-03-23T03:08:33.410Z,93.13
2023-03-23T03:09:33.365Z,92.11
2023-03-23T03:10:33.378Z,92.52
2023-03-23T03:11:33.328Z,92.83
2023-03-23T03:12:33.344Z,92.72
2023-03-23T03:13:33.336Z,92.42
2023-03-23T03:14:33.337Z,92.62
2023-03-23T03:15:33.302Z,93.33
2023-03-23T03:16:33.307Z,92.42
2023-03-23T03:17:33.270Z,93.03
2023-03-23T03:18:33.282Z,93.13
2023-03-23T03:19:33.314Z,94.77
2023-03-23T03:20:33.287Z,92.83
2023-03-23T03:21:33.236Z,93.74
2023-03-23T03:22:33.250Z,93.54
2023-03-23T03:23:33.255Z,93.99
2023-03-23T03:24:33.239Z,94.81
2023-03-23T03:25:33.224Z,93.99
2023-03-23T03:26:33.222Z,93.13
2023-03-23T03:27:33.176Z,94.15
2023-03-23T03:28:33.186Z,94.51
2023-03-23T03:29:33.155Z,95.53
2023-03-23T03:30:33.158Z,95.22
2023-03-23T03:31:33.142Z,95.32
2023-03-23T03:32:33.151Z,94.71
2023-03-23T03:33:33.121Z,94.81
2023-03-23T03:34:33.121Z,94.71
2023-03-23T03:35:33.091Z,94.10
2023-03-23T03:36:33.098Z,94.92
2023-03-23T03:37:33.090Z,95.53
2023-03-23T03:38:33.093Z,94.20
2023-03-23T03:39:33.055Z,94.81
2023-03-23T03:40:33.069Z,93.89
2023-03-23T03:41:33.033Z,93.89
2023-03-23T03:42:33.052Z,93.59
2023-03-23T03:43:33.037Z,94.20
2023-03-23T03:44:33.008Z,93.79
2023-03-23T03:45:33.012Z,94.71
2023-03-23T03:46:33.010Z,94.20
2023-03-23T03:47:32.964Z,95.73
2023-03-23T03:48:32.970Z,94.51
2023-03-23T03:49:32.972Z,94.30
2023-03-23T03:50:32.942Z,95.02
2023-03-23T03:51:32.913Z,95.02
2023-03-23T03:52:32.951Z,94.10
2023-03-23T03:53:32.897Z,93.69
2023-03-23T03:54:32.922Z,93.99
2023-03-23T03:55:32.914Z,95.73
2023-03-23T03:56:32.884Z,94.51
2023-03-23T03:57:32.883Z,94.30
2023-03-23T03:58:32.866Z,94.30
2023-03-23T03:59:32.834Z,94.81
2023-03-23T04:00:32.849Z,95.22
2023-03-23T04:01:32.836Z,94.71
2023-03-23T04:02:32.836Z,93.79
2023-03-23T04:03:32.799Z,94.10
2023-03-23T04:04:32.834Z,95.02
2023-03-23T04:05:32.802Z,94.51
2023-03-23T04:06:32.792Z,94.81
2023-03-23T04:07:32.791Z,95.63
2023-03-23T04:08:32.781Z,94.81
2023-03-23T04:09:32.725Z,94.40
2023-03-23T04:10:33.214Z,94.81
2023-03-23T04:11:33.328Z,93.48
2023-03-23T04:12:32.732Z,93.48
2023-03-23T04:13:32.705Z,93.79
2023-03-23T04:14:32.699Z,93.38
2023-03-23T04:15:32.677Z,92.36
2023-03-23T04:16:32.685Z,91.44
2023-03-23T04:17:32.643Z,90.88
2023-03-23T04:18:32.655Z,90.17
2023-03-23T04:19:32.633Z,90.99
2023-03-23T04:20:32.637Z,90.17
2023-03-23T04:21:32.604Z,90.78
2023-03-23T04:22:32.608Z,89.86
2023-03-23T04:23:32.589Z,87.82
2023-03-23T04:24:55.780Z,89.61
2023-03-23T04:25:32.574Z,89.11
2023-03-23T04:26:32.588Z,88.70
2023-03-23T04:27:32.533Z,88.08
2023-03-23T04:28:32.558Z,87.88
2023-03-23T04:29:32.542Z,88.18
2023-03-23T04:30:32.552Z,89.00
2023-03-23T04:31:32.529Z,88.08
2023-03-23T04:32:32.524Z,88.18
2023-03-23T04:33:59.971Z,87.77
2023-03-23T04:34:32.473Z,87.06
2023-03-23T04:35:32.535Z,88.29
2023-03-23T04:36:57.073Z,87.16
2023-03-23T04:37:32.478Z,86.65
2023-03-23T04:38:32.418Z,85.69
2023-03-23T04:39:32.435Z,85.79
2023-03-23T04:40:32.428Z,86.91
2023-03-23T04:41:32.434Z,85.89
2023-03-23T04:42:32.399Z,86.82
2023-03-23T04:43:32.434Z,86.76
2023-03-23T04:44:32.460Z,86.96
2023-03-23T04:45:32.377Z,86.00
2023-03-23T04:46:32.349Z,85.59
2023-03-23T04:47:32.371Z,86.82
2023-03-23T04:48:32.442Z,86.20
2023-03-23T04:49:32.345Z,86.61
2023-03-23T04:50:32.329Z,86.10
2023-03-23T04:51:32.306Z,87.02
2023-03-23T04:52:32.274Z,86.41
2023-03-23T04:53:32.295Z,85.89
2023-03-23T04:54:32.254Z,85.69
2023-03-23T04:55:32.292Z,86.20
2023-03-23T04:56:32.227Z,85.59
2023-03-23T04:57:32.251Z,85.59
2023-03-23T04:58:32.229Z,86.20
2023-03-23T04:59:32.227Z,87.53
2023-03-23T05:00:32.209Z,86.20
2023-03-23T05:01:32.235Z,85.69
2023-03-23T05:02:32.167Z,86.30
2023-03-23T05:03:32.177Z,85.89
2023-03-23T05:04:32.156Z,86.82
2023-03-23T05:05:32.165Z,86.20
2023-03-23T05:06:32.135Z,87.23
2023-03-23T05:07:32.166Z,86.30
2023-03-23T05:08:32.106Z,87.73
2023-03-23T05:09:32.122Z,86.61
2023-03-23T05:10:32.086Z,86.51
2023-03-23T05:11:32.106Z,85.79
2023-03-23T05:12:32.088Z,86.20
2023-03-23T05:13:32.107Z,86.51
2023-03-23T05:14:32.051Z,87.43
2023-03-23T05:15:32.065Z,86.20
2023-03-23T05:16:32.033Z,86.20
2023-03-23T05:17:32.044Z,85.79
2023-03-23T05:18:32.012Z,85.08
2023-03-23T05:19:32.053Z,84.98
2023-03-23T05:20:31.980Z,85.69
2023-03-23T05:21:32.030Z,86.91
2023-03-23T05:22:31.967Z,87.73
2023-03-23T05:23:31.980Z,86.91
2023-03-23T05:24:31.936Z,85.79
2023-03-23T05:25:31.995Z,86.00
2023-03-23T05:26:32.517Z,86.00
2023-03-23T05:27:31.927Z,86.20
2023-03-23T05:28:31.914Z,87.02
2023-03-23T05:29:31.903Z,85.59
2023-03-23T05:30:31.872Z,86.20
2023-03-23T05:31:31.902Z,86.00
2023-03-23T05:32:31.862Z,87.32
2023-03-23T05:33:31.878Z,86.20
2023-03-23T05:34:31.870Z,87.12
2023-03-23T05:35:31.873Z,86.61
2023-03-23T05:36:31.806Z,86.82
2023-03-23T05:37:31.841Z,87.32
2023-03-23T05:38:31.794Z,85.89
2023-03-23T05:39:31.800Z,85.59
2023-03-23T05:40:31.766Z,84.88
2023-03-23T05:41:31.817Z,85.08
2023-03-23T05:42:31.750Z,85.69
2023-03-23T05:43:31.801Z,85.38
2023-03-23T05:44:31.726Z,85.18
2023-03-23T05:45:31.733Z,84.33
2023-03-23T05:46:31.716Z,84.12
2023-03-23T05:47:31.729Z,84.74
2023-03-23T05:48:31.686Z,84.33
2023-03-23T05:49:31.712Z,83.81
2023-03-23T05:50:31.669Z,83.61
2023-03-23T05:51:31.673Z,84.01
2023-03-23T05:52:31.677Z,83.92
2023-03-23T05:53:31.647Z,83.51
2023-03-23T05:54:31.620Z,85.24
2023-03-23T05:55:31.643Z,84.22
2023-03-23T05:56:31.596Z,84.53
2023-03-23T05:57:31.612Z,84.83
2023-03-23T05:58:31.587Z,84.42
2023-03-23T05:59:31.602Z,84.74
2023-03-23T06:00:31.553Z,84.42
2023-03-23T06:01:31.596Z,85.65
2023-03-23T06:02:31.628Z,84.94
2023-03-23T06:03:31.544Z,85.14
2023-03-23T06:04:31.520Z,84.74
2023-03-23T06:05:31.524Z,84.53
2023-03-23T06:06:31.490Z,83.51
2023-03-23T06:07:31.528Z,83.57
2023-03-23T06:08:31.489Z,84.83
2023-03-23T06:09:31.482Z,84.22
2023-03-23T06:10:31.458Z,84.42
2023-03-23T06:11:31.466Z,84.42
2023-03-23T06:12:31.429Z,83.40
2023-03-23T06:13:31.461Z,83.37
2023-03-23T06:14:31.414Z,83.92
2023-03-23T06:15:31.421Z,83.71
2023-03-23T06:16:31.387Z,83.20
2023-03-23T06:17:31.407Z,83.30
2023-03-23T06:18:31.373Z,83.26
2023-03-23T06:19:31.410Z,83.98
2023-03-23T06:20:31.365Z,83.00
2023-03-23T06:21:31.360Z,82.75
2023-03-23T06:22:31.320Z,83.26
2023-03-23T06:23:31.338Z,83.47
2023-03-23T06:24:31.305Z,83.06
2023-03-23T06:25:31.357Z,83.47
2023-03-23T06:26:31.294Z,82.35
2023-03-23T06:27:31.291Z,82.65
2023-03-23T06:28:31.258Z,82.65
2023-03-23T06:29:31.275Z,83.06
2023-03-23T06:30:31.254Z,82.96
2023-03-23T06:31:31.296Z,83.26
2023-03-23T06:32:31.217Z,82.45
2023-03-23T06:33:31.232Z,83.47
2023-03-23T06:34:31.204Z,82.86
2023-03-23T06:35:31.216Z,82.55
2023-03-23T06:36:31.188Z,82.45
2023-03-23T06:37:31.220Z,82.82
2023-03-23T06:38:31.155Z,82.14
2023-03-23T06:39:31.173Z,82.35
2023-03-23T06:40:31.137Z,82.04
2023-03-23T06:41:31.151Z,81.90
2023-03-23T06:42:31.120Z,82.86
2023-03-23T06:43:31.146Z,82.65
2023-03-23T06:44:31.093Z,82.65
2023-03-23T06:45:31.104Z,82.45
2023-03-23T06:46:31.081Z,83.16
2023-03-23T06:47:31.093Z,83.87
2023-03-23T06:48:31.057Z,83.26
2023-03-23T06:49:31.104Z,83.37
2023-03-23T06:50:31.037Z,84.28
2023-03-23T06:51:31.041Z,83.37
2023-03-23T06:52:31.010Z,84.90
2023-03-23T06:53:31.036Z,84.90
2023-03-23T06:54:31.013Z,84.18
2023-03-23T06:55:31.019Z,85.30
2023-03-23T06:56:30.973Z,84.69
2023-03-23T06:57:30.983Z,84.80
2023-03-23T06:58:30.960Z,85.21
2023-03-23T06:59:30.974Z,86.83
2023-03-23T07:00:30.933Z,85.82
2023-03-23T07:01:30.967Z,87.29
2023-03-23T07:02:30.901Z,86.98
2023-03-23T07:03:30.922Z,85.30
2023-03-23T07:04:30.887Z,85.21
2023-03-23T07:05:30.900Z,87.35
2023-03-23T07:06:30.862Z,87.14
2023-03-23T07:07:30.899Z,85.61
2023-03-23T07:08:30.842Z,86.53
2023-03-23T07:09:42.688Z,84.45
2023-03-23T07:10:30.842Z,84.86
2023-03-23T07:11:30.838Z,83.33
2023-03-23T07:12:30.795Z,84.55
2023-03-23T07:13:30.841Z,82.92
2023-03-23T07:14:30.776Z,84.55
2023-03-23T07:15:30.790Z,81.96
2023-03-23T07:16:30.753Z,81.86
2023-03-23T07:17:30.775Z,83.49
2023-03-23T07:18:30.748Z,82.88
2023-03-23T07:19:30.760Z,81.66
2023-03-23T07:20:30.712Z,81.15
2023-03-23T07:21:30.736Z,81.66
2023-03-23T07:22:30.713Z,80.70
2023-03-23T07:23:30.709Z,80.50
2023-03-23T07:24:30.676Z,80.70
2023-03-23T07:25:30.935Z,79.58
2023-03-23T07:26:30.650Z,78.77
2023-03-23T07:27:30.676Z,79.64
2023-03-23T07:28:30.642Z,79.54
2023-03-23T07:29:30.661Z,79.44
2023-03-23T07:30:30.610Z,78.53
2023-03-23T07:31:30.645Z,78.73
2023-03-23T07:32:30.586Z,79.34
2023-03-23T07:33:30.771Z,77.81
2023-03-23T07:34:30.562Z,78.02
2023-03-23T07:35:30.585Z,77.91
2023-03-23T07:36:30.543Z,77.81
2023-03-23T07:37:30.587Z,78.63
2023-03-23T07:38:30.520Z,78.42
2023-03-23T07:39:30.533Z,79.03
2023-03-23T07:40:30.500Z,78.53
2023-03-23T07:41:30.514Z,78.22
2023-03-23T07:42:30.482Z,78.63
2023-03-23T07:43:30.540Z,77.20
2023-03-23T07:44:30.455Z,77.61
2023-03-23T07:45:30.474Z,77.00
2023-03-23T07:46:30.439Z,77.30
2023-03-23T07:47:34.027Z,76.90
2023-03-23T07:48:30.428Z,77.30
2023-03-23T07:49:30.446Z,76.79
2023-03-23T07:50:30.394Z,76.39
2023-03-23T07:51:30.418Z,77.67
2023-03-23T07:52:30.373Z,75.95
2023-03-23T07:53:30.412Z,76.86
2023-03-23T07:54:30.348Z,76.86
2023-03-23T07:55:30.393Z,77.57
2023-03-23T07:56:30.340Z,76.76
2023-03-23T07:57:30.375Z,75.95
2023-03-23T07:58:30.310Z,76.25
2023-03-23T07:59:30.323Z,76.25
2023-03-23T08:00:30.289Z,75.33
2023-03-23T08:01:30.329Z,75.84
2023-03-23T08:02:30.281Z,74.93
2023-03-23T08:03:30.288Z,75.95
2023-03-23T08:04:30.244Z,76.01
2023-03-23T08:05:30.259Z,75.09
2023-03-23T08:06:30.226Z,76.01
2023-03-23T08:07:30.276Z,75.20
2023-03-23T08:08:30.200Z,74.82
2023-03-23T08:09:30.213Z,74.93
2023-03-23T08:10:30.187Z,76.15
2023-03-23T08:11:30.199Z,76.35
2023-03-23T08:12:30.156Z,75.13
2023-03-23T08:13:30.227Z,74.93
2023-03-23T08:14:30.146Z,74.52
2023-03-23T08:15:30.158Z,74.62
2023-03-23T08:16:30.115Z,74.72
2023-03-23T08:17:30.136Z,74.89
2023-03-23T08:18:30.327Z,74.52
2023-03-23T08:19:31.715Z,74.48
2023-03-23T08:20:30.081Z,74.89
2023-03-23T08:21:30.091Z,74.08
2023-03-23T08:22:30.069Z,75.40
2023-03-23T08:23:30.063Z,73.87
2023-03-23T08:24:30.037Z,74.38
2023-03-23T08:25:30.073Z,74.48
2023-03-23T08:26:30.028Z,73.47
2023-03-23T08:27:30.022Z,73.16
2023-03-23T08:28:31.644Z,73.67
2023-03-23T08:29:29.999Z,73.57
2023-03-23T08:30:29.986Z,73.77
2023-03-23T08:31:30.017Z,73.97
2023-03-23T08:32:29.942Z,73.97
2023-03-23T08:33:29.972Z,73.87
2023-03-23T08:34:29.927Z,72.65
2023-03-23T08:35:29.935Z,72.96
2023-03-23T08:36:29.903Z,72.45
2023-03-23T08:37:29.973Z,72.96
2023-03-23T08:38:29.881Z,72.25
2023-03-23T08:39:29.966Z,72.75
2023-03-23T08:40:29.865Z,72.65
2023-03-23T08:41:29.876Z,72.45
2023-03-23T08:42:29.840Z,72.96
2023-03-23T08:43:29.888Z,73.57
2023-03-23T08:44:29.826Z,72.92
2023-03-23T08:45:29.830Z,73.43
2023-03-23T08:46:29.796Z,72.41
2023-03-23T08:47:29.808Z,73.54
2023-03-23T08:48:29.778Z,73.33
2023-03-23T08:49:29.802Z,72.92
2023-03-23T08:50:29.781Z,72.31
2023-03-23T08:51:29.744Z,71.91
2023-03-23T08:52:29.762Z,71.40
2023-03-23T08:53:29.725Z,70.68
2023-03-23T08:54:29.735Z,70.58
2023-03-23T08:55:29.751Z,70.89
2023-03-23T08:56:29.725Z,70.96
2023-03-23T08:57:29.680Z,70.45
2023-03-23T08:58:29.698Z,70.35
2023-03-23T08:59:29.659Z,70.25
2023-03-23T09:00:33.879Z,70.14
2023-03-23T09:01:29.666Z,70.55
2023-03-23T09:02:29.664Z,69.94
2023-03-23T09:03:29.628Z,69.74
2023-03-23T09:04:29.650Z,69.74
2023-03-23T09:05:29.600Z,70.86
2023-03-23T09:06:29.612Z,69.23
2023-03-23T09:07:29.604Z,69.64
2023-03-23T09:08:29.585Z,69.33
2023-03-23T09:09:29.558Z,69.60
2023-03-23T09:10:30.502Z,69.30
2023-03-23T09:11:29.539Z,69.30
2023-03-23T09:12:29.548Z,68.99
2023-03-23T09:13:29.627Z,71.03
2023-03-23T09:14:29.527Z,69.98
2023-03-23T09:15:34.141Z,68.25
2023-03-23T09:16:29.504Z,68.69
2023-03-23T09:17:29.487Z,68.76
2023-03-23T09:18:29.485Z,68.76
2023-03-23T09:19:29.498Z,68.55
2023-03-23T09:20:29.493Z,68.15
2023-03-23T09:21:29.431Z,68.49
2023-03-23T09:22:29.441Z,68.66
2023-03-23T09:23:29.639Z,68.99
2023-03-23T09:24:29.427Z,68.69
2023-03-23T09:25:29.401Z,68.76
2023-03-23T09:26:29.400Z,68.15
2023-03-23T09:27:29.371Z,68.55
2023-03-23T09:28:29.376Z,68.15
2023-03-23T09:29:29.349Z,68.86
2023-03-23T09:30:29.356Z,67.74
2023-03-23T09:31:29.484Z,68.55
2023-03-23T09:32:29.343Z,67.61
2023-03-23T09:33:29.302Z,67.00
2023-03-23T09:34:29.314Z,67.71
2023-03-23T09:35:29.285Z,68.22
2023-03-23T09:36:29.305Z,67.38
2023-03-23T09:37:29.285Z,67.00
2023-03-23T09:38:29.276Z,66.60
2023-03-23T09:39:29.252Z,66.19
2023-03-23T09:40:29.278Z,67.00
2023-03-23T09:41:29.217Z,67.44
2023-03-23T09:42:29.228Z,67.81
2023-03-23T09:43:29.226Z,67.41
2023-03-23T09:44:29.215Z,67.03
2023-03-23T09:45:29.182Z,67.10
2023-03-23T09:46:29.197Z,67.50
2023-03-23T09:47:29.153Z,67.61
2023-03-23T09:48:29.171Z,67.00
2023-03-23T09:49:29.147Z,66.60
2023-03-23T09:50:29.157Z,66.60
2023-03-23T09:51:29.115Z,68.22
2023-03-23T09:52:29.127Z,66.60
2023-03-23T09:53:29.089Z,67.00
2023-03-23T09:54:29.104Z,67.91
2023-03-23T09:55:29.093Z,66.80
2023-03-23T09:56:29.093Z,67.33
2023-03-23T09:57:29.057Z,67.94
2023-03-23T09:58:29.066Z,67.44
2023-03-23T09:59:29.027Z,67.54
2023-03-23T10:00:29.097Z,68.25
2023-03-23T10:01:29.033Z,67.13
2023-03-23T10:02:29.021Z,66.72
2023-03-23T10:03:28.989Z,67.54
2023-03-23T10:04:29.002Z,67.13
2023-03-23T10:05:28.975Z,67.10
2023-03-23T10:06:28.979Z,66.49
2023-03-23T10:07:28.955Z,65.68
2023-03-23T10:08:28.957Z,66.69
2023-03-23T10:09:28.930Z,66.29
2023-03-23T10:10:28.937Z,66.60
2023-03-23T10:11:28.910Z,66.69
2023-03-23T10:12:28.918Z,68.62
2023-03-23T10:13:28.895Z,67.00
2023-03-23T10:14:28.897Z,66.60
2023-03-23T10:15:28.863Z,66.80
2023-03-23T10:16:28.878Z,66.63
2023-03-23T10:17:28.893Z,67.00
2023-03-23T10:18:28.851Z,67.71
2023-03-23T10:19:28.848Z,67.07
2023-03-23T10:20:28.829Z,66.16
2023-03-23T10:21:28.795Z,66.77
2023-03-23T10:22:28.805Z,67.07
2023-03-23T10:23:28.771Z,66.94
2023-03-23T10:24:28.792Z,66.63
2023-03-23T10:25:28.767Z,66.23
2023-03-23T10:26:28.764Z,65.75
2023-03-23T10:27:28.727Z,65.65
2023-03-23T10:28:28.748Z,66.16
2023-03-23T10:29:28.709Z,66.66
2023-03-23T10:30:28.726Z,66.16
2023-03-23T10:31:28.707Z,66.77
2023-03-23T10:32:28.700Z,66.86
2023-03-23T10:33:28.683Z,66.49
2023-03-23T10:34:28.680Z,67.71
2023-03-23T10:35:29.376Z,66.80
2023-03-23T10:36:28.685Z,67.30
2023-03-23T10:37:28.656Z,67.71
2023-03-23T10:38:28.644Z,67.41
2023-03-23T10:39:28.614Z,66.49
2023-03-23T10:40:28.626Z,67.84
2023-03-23T10:41:28.588Z,67.44
2023-03-23T10:42:28.598Z,69.03
2023-03-23T10:43:28.588Z,68.01
2023-03-23T10:44:28.576Z,67.81
2023-03-23T10:45:28.541Z,67.41
2023-03-23T10:46:32.174Z,67.64
2023-03-23T10:47:28.545Z,68.05
2023-03-23T10:48:28.540Z,68.45
2023-03-23T10:49:28.518Z,68.96
2023-03-23T10:50:28.517Z,68.96
2023-03-23T10:51:28.478Z,70.28
2023-03-23T10:52:28.497Z,69.78
2023-03-23T10:53:28.473Z,68.86
2023-03-23T10:54:28.494Z,68.35
2023-03-23T10:55:28.460Z,66.93
2023-03-23T10:56:28.453Z,68.66
2023-03-23T10:57:28.418Z,68.66
2023-03-23T10:58:28.428Z,69.20
2023-03-23T10:59:28.410Z,71.43
2023-03-23T11:00:28.408Z,70.96
2023-03-23T11:01:28.400Z,73.70
2023-03-23T11:02:29.735Z,75.57
2023-03-23T11:03:28.359Z,77.13
2023-03-23T11:04:28.366Z,80.05
2023-03-23T11:05:28.332Z,85.43
2023-03-23T11:06:28.344Z,86.98
2023-03-23T11:07:28.337Z,87.88
2023-03-23T11:08:28.325Z,90.52
2023-03-23T11:09:28.290Z,91.23
2023-03-23T11:10:28.308Z,93.63
2023-03-23T11:11:28.268Z,93.32
2023-03-23T11:12:28.282Z,92.14
2023-03-23T11:13:28.267Z,94.08
2023-03-23T11:14:28.263Z,93.67
2023-03-23T11:15:28.247Z,94.34
2023-03-23T11:16:28.254Z,92.91
2023-03-23T11:17:28.213Z,92.50
2023-03-23T11:18:28.217Z,92.50
2023-03-23T11:19:28.205Z,92.40
2023-03-23T11:20:28.194Z,92.71
2023-03-23T11:21:28.162Z,92.60
2023-03-23T11:22:28.178Z,93.48
2023-03-23T11:23:28.143Z,93.07
2023-03-23T11:24:28.166Z,91.13
2023-03-23T11:25:28.132Z,90.62
2023-03-23T11:26:28.129Z,91.03
2023-03-23T11:27:28.096Z,92.05
2023-03-23T11:28:28.112Z,91.03
2023-03-23T11:29:28.076Z,93.59
2023-03-23T11:30:28.091Z,90.62
2023-03-23T11:31:28.076Z,91.03
2023-03-23T11:32:28.069Z,93.18
2023-03-23T11:33:28.044Z,92.46
2023-03-23T11:34:28.047Z,91.85
2023-03-23T11:35:28.010Z,90.82
2023-03-23T11:36:28.025Z,90.92
2023-03-23T11:37:28.007Z,91.13
2023-03-23T11:38:28.015Z,91.44
2023-03-23T11:39:27.977Z,89.90
2023-03-23T11:40:27.982Z,91.29
2023-03-23T11:41:27.958Z,90.88
2023-03-23T11:42:27.971Z,92.52
2023-03-23T11:43:29.570Z,92.21
2023-03-23T11:44:27.938Z,92.42
2023-03-23T11:45:27.911Z,94.26
2023-03-23T11:46:27.919Z,93.79
2023-03-23T11:47:27.885Z,93.79
2023-03-23T11:48:27.895Z,96.66
2023-03-23T11:49:29.798Z,96.34
2023-03-23T11:50:27.891Z,96.45
2023-03-23T11:51:27.841Z,96.86
2023-03-23T11:52:27.854Z,94.30
2023-03-23T11:53:27.836Z,95.53
2023-03-23T11:54:27.835Z,96.86
2023-03-23T11:55:28.693Z,97.06
2023-03-23T11:56:27.823Z,96.04
2023-03-23T11:57:27.777Z,94.81
2023-03-23T11:58:27.797Z,93.18
2023-03-23T11:59:27.763Z,94.60
2023-03-23T12:00:27.767Z,93.28
2023-03-23T12:01:27.761Z,94.71
2023-03-23T12:02:27.749Z,95.02
2023-03-23T12:03:27.725Z,95.32
2023-03-23T12:04:27.747Z,94.60
2023-03-23T12:05:27.693Z,95.63
2023-03-23T12:06:28.870Z,97.06
2023-03-23T12:07:27.680Z,99.01
2023-03-23T12:08:27.692Z,99.62
2023-03-23T12:09:27.662Z,97.16
2023-03-23T12:10:40.585Z,97.16
2023-03-23T12:11:27.628Z,97.78
2023-03-23T12:12:27.641Z,99.05
2023-03-23T12:13:27.636Z,99.26
2023-03-23T12:14:33.241Z,99.99
2023-03-23T12:15:27.641Z,99.11
2023-03-23T12:16:27.605Z,98.24
2023-03-23T12:17:27.584Z,99.99
2023-03-23T12:18:27.577Z,99.99
2023-03-23T12:19:27.584Z,99.98
2023-03-23T12:20:34.257Z,99.87
2023-03-23T12:21:27.553Z,99.99
2023-03-23T12:22:27.567Z,99.99
2023-03-23T12:23:27.533Z,99.99
2023-03-23T12:24:27.519Z,99.99
2023-03-23T12:25:27.492Z,99.99
2023-03-23T12:26:27.497Z,99.99
2023-03-23T12:27:27.465Z,99.99
2023-03-23T12:28:27.474Z,99.99
2023-03-23T12:29:27.442Z,99.99
2023-03-23T12:30:27.453Z,99.99
2023-03-23T12:31:27.444Z,99.99
2023-03-23T12:32:27.437Z,99.99
2023-03-23T12:33:27.436Z,99.99
2023-03-23T12:34:27.409Z,99.99
2023-03-23T12:35:27.482Z,99.99
2023-03-23T12:36:27.452Z,99.99
2023-03-23T12:37:27.371Z,99.99
2023-03-23T12:38:27.369Z,99.99
2023-03-23T12:39:27.336Z,99.99
2023-03-23T12:40:27.347Z,99.99
2023-03-23T12:41:27.322Z,99.99
2023-03-23T12:42:27.344Z,99.99
2023-03-23T12:43:27.330Z,99.99
2023-03-23T12:44:27.300Z,99.99
2023-03-23T12:45:27.302Z,99.99
2023-03-23T12:46:27.282Z,99.99
2023-03-23T12:47:27.253Z,99.99
2023-03-23T12:48:27.269Z,99.99
2023-03-23T12:49:27.265Z,99.99
2023-03-23T12:50:27.236Z,99.99
2023-03-23T12:51:27.210Z,99.99
2023-03-23T12:52:27.219Z,99.99